sensor_id;sensor_type;location;lat;lon;timestamp;P1;durP1;ratioP1;P2;durP2;ratioP2
11046;SDS011;5576;50.008;10.596;2022-11-20T00:00:47;21.70;;;19.33;;
11046;SDS011;5576;50.008;10.596;2022-11-20T00:03:13;22.13;;;19.73;;
11046;SDS011;5576;50.008;10.596;2022-11-20T00:05:39;23.65;;;20.75;;
11046;SDS011;5576;50.008;10.596;2022-11-20T00:08:04;22.00;;;19.27;;
11046;SDS011;5576;50.008;10.596;2022-11-20T00:10:30;21.05;;;18.73;;
11046;SDS011;5576;50.008;10.596;2022-11-20T00:12:58;20.27;;;17.85;;
11046;SDS011;5576;50.008;10.596;2022-11-20T00:15:24;22.80;;;20.30;;
11046;SDS011;5576;50.008;10.596;2022-11-20T00:17:50;21.50;;;19.13;;
11046;SDS011;5576;50.008;10.596;2022-11-20T00:20:15;23.65;;;20.83;;
11046;SDS011;5576;50.008;10.596;2022-11-20T00:22:41;23.13;;;20.63;;
11046;SDS011;5576;50.008;10.596;2022-11-20T00:25:07;22.30;;;18.45;;
11046;SDS011;5576;50.008;10.596;2022-11-20T00:27:33;24.15;;;21.13;;
11046;SDS011;5576;50.008;10.596;2022-11-20T00:29:59;34.27;;;28.23;;
11046;SDS011;5576;50.008;10.596;2022-11-20T00:32:25;39.10;;;31.55;;
11046;SDS011;5576;50.008;10.596;2022-11-20T00:34:50;27.27;;;22.73;;
11046;SDS011;5576;50.008;10.596;2022-11-20T00:37:16;34.95;;;26.83;;
11046;SDS011;5576;50.008;10.596;2022-11-20T00:39:42;33.17;;;26.23;;
11046;SDS011;5576;50.008;10.596;2022-11-20T00:42:07;24.47;;;21.03;;
11046;SDS011;5576;50.008;10.596;2022-11-20T00:44:33;23.90;;;20.48;;
11046;SDS011;5576;50.008;10.596;2022-11-20T00:46:59;23.20;;;19.80;;
11046;SDS011;5576;50.008;10.596;2022-11-20T00:49:25;24.02;;;19.95;;
11046;SDS011;5576;50.008;10.596;2022-11-20T00:51:50;27.10;;;22.67;;
11046;SDS011;5576;50.008;10.596;2022-11-20T00:54:16;23.92;;;20.98;;
11046;SDS011;5576;50.008;10.596;2022-11-20T00:56:42;21.60;;;19.30;;
11046;SDS011;5576;50.008;10.596;2022-11-20T00:59:08;25.77;;;22.27;;
11046;SDS011;5576;50.008;10.596;2022-11-20T01:01:34;22.58;;;19.17;;
11046;SDS011;5576;50.008;10.596;2022-11-20T01:04:01;24.38;;;21.45;;
11046;SDS011;5576;50.008;10.596;2022-11-20T01:06:29;24.65;;;21.65;;
11046;SDS011;5576;50.008;10.596;2022-11-20T01:08:57;25.60;;;22.27;;
11046;SDS011;5576;50.008;10.596;2022-11-20T01:11:26;25.98;;;23.08;;
11046;SDS011;5576;50.008;10.596;2022-11-20T01:13:54;23.23;;;20.52;;
11046;SDS011;5576;50.008;10.596;2022-11-20T01:16:22;23.98;;;21.00;;
11046;SDS011;5576;50.008;10.596;2022-11-20T01:18:50;26.02;;;22.77;;
11046;SDS011;5576;50.008;10.596;2022-11-20T01:21:19;25.40;;;22.17;;
11046;SDS011;5576;50.008;10.596;2022-11-20T01:23:46;24.58;;;21.83;;
11046;SDS011;5576;50.008;10.596;2022-11-20T01:26:14;23.38;;;20.08;;
11046;SDS011;5576;50.008;10.596;2022-11-20T01:28:41;24.10;;;20.02;;
11046;SDS011;5576;50.008;10.596;2022-11-20T01:31:12;24.88;;;20.63;;
11046;SDS011;5576;50.008;10.596;2022-11-20T01:33:40;24.75;;;20.52;;
11046;SDS011;5576;50.008;10.596;2022-11-20T01:36:07;26.80;;;22.00;;
11046;SDS011;5576;50.008;10.596;2022-11-20T01:38:34;25.73;;;21.83;;
11046;SDS011;5576;50.008;10.596;2022-11-20T01:41:00;27.17;;;21.63;;
11046;SDS011;5576;50.008;10.596;2022-11-20T01:43:26;25.70;;;21.58;;
11046;SDS011;5576;50.008;10.596;2022-11-20T01:48:45;22.73;;;19.73;;
11046;SDS011;5576;50.008;10.596;2022-11-20T01:51:19;22.17;;;18.77;;
11046;SDS011;5576;50.008;10.596;2022-11-20T01:53:47;24.98;;;21.55;;
11046;SDS011;5576;50.008;10.596;2022-11-20T01:56:14;24.85;;;20.83;;
11046;SDS011;5576;50.008;10.596;2022-11-20T01:58:42;24.25;;;20.13;;
11046;SDS011;5576;50.008;10.596;2022-11-20T02:01:14;23.67;;;19.90;;
11046;SDS011;5576;50.008;10.596;2022-11-20T02:03:39;22.42;;;19.90;;
11046;SDS011;5576;50.008;10.596;2022-11-20T02:06:10;23.23;;;19.48;;
11046;SDS011;5576;50.008;10.596;2022-11-20T02:08:41;23.30;;;19.80;;
11046;SDS011;5576;50.008;10.596;2022-11-20T02:11:07;22.45;;;19.73;;
11046;SDS011;5576;50.008;10.596;2022-11-20T02:13:33;23.00;;;19.73;;
11046;SDS011;5576;50.008;10.596;2022-11-20T02:19:02;22.63;;;19.52;;
11046;SDS011;5576;50.008;10.596;2022-11-20T02:24:12;22.90;;;18.95;;
11046;SDS011;5576;50.008;10.596;2022-11-20T02:29:22;22.38;;;18.95;;
11046;SDS011;5576;50.008;10.596;2022-11-20T02:31:50;24.40;;;20.35;;
11046;SDS011;5576;50.008;10.596;2022-11-20T02:34:18;22.90;;;19.83;;
11046;SDS011;5576;50.008;10.596;2022-11-20T02:36:44;22.70;;;19.10;;
11046;SDS011;5576;50.008;10.596;2022-11-20T02:39:11;22.43;;;19.20;;
11046;SDS011;5576;50.008;10.596;2022-11-20T02:41:41;23.52;;;20.10;;
11046;SDS011;5576;50.008;10.596;2022-11-20T02:44:07;23.63;;;19.70;;
11046;SDS011;5576;50.008;10.596;2022-11-20T02:46:33;23.67;;;19.52;;
11046;SDS011;5576;50.008;10.596;2022-11-20T02:49:00;22.83;;;19.50;;
11046;SDS011;5576;50.008;10.596;2022-11-20T02:51:26;22.05;;;18.80;;
11046;SDS011;5576;50.008;10.596;2022-11-20T02:53:52;22.10;;;18.63;;
11046;SDS011;5576;50.008;10.596;2022-11-20T02:56:18;22.20;;;19.00;;
11046;SDS011;5576;50.008;10.596;2022-11-20T02:58:44;21.73;;;18.33;;
11046;SDS011;5576;50.008;10.596;2022-11-20T03:01:09;22.75;;;19.35;;
11046;SDS011;5576;50.008;10.596;2022-11-20T03:03:35;23.08;;;19.05;;
11046;SDS011;5576;50.008;10.596;2022-11-20T03:06:00;22.57;;;19.53;;
11046;SDS011;5576;50.008;10.596;2022-11-20T03:08:26;24.35;;;20.02;;
11046;SDS011;5576;50.008;10.596;2022-11-20T03:10:53;24.88;;;20.83;;
11046;SDS011;5576;50.008;10.596;2022-11-20T03:13:19;23.70;;;19.75;;
11046;SDS011;5576;50.008;10.596;2022-11-20T03:15:44;22.10;;;19.67;;
11046;SDS011;5576;50.008;10.596;2022-11-20T03:18:10;23.02;;;19.55;;
11046;SDS011;5576;50.008;10.596;2022-11-20T03:20:36;24.13;;;20.20;;
11046;SDS011;5576;50.008;10.596;2022-11-20T03:23:01;23.73;;;20.77;;
11046;SDS011;5576;50.008;10.596;2022-11-20T03:25:27;23.87;;;20.17;;
11046;SDS011;5576;50.008;10.596;2022-11-20T03:27:53;26.05;;;21.75;;
11046;SDS011;5576;50.008;10.596;2022-11-20T03:30:19;24.20;;;20.40;;
11046;SDS011;5576;50.008;10.596;2022-11-20T03:32:45;23.35;;;19.75;;
11046;SDS011;5576;50.008;10.596;2022-11-20T03:35:11;25.98;;;22.25;;
11046;SDS011;5576;50.008;10.596;2022-11-20T03:37:36;24.97;;;21.33;;
11046;SDS011;5576;50.008;10.596;2022-11-20T03:40:02;25.38;;;20.98;;
11046;SDS011;5576;50.008;10.596;2022-11-20T03:42:29;26.02;;;21.20;;
11046;SDS011;5576;50.008;10.596;2022-11-20T03:45:10;24.65;;;21.48;;
11046;SDS011;5576;50.008;10.596;2022-11-20T03:47:35;26.17;;;21.97;;
11046;SDS011;5576;50.008;10.596;2022-11-20T03:50:02;24.25;;;20.10;;
11046;SDS011;5576;50.008;10.596;2022-11-20T03:52:28;22.90;;;20.10;;
11046;SDS011;5576;50.008;10.596;2022-11-20T03:54:54;25.87;;;21.57;;
11046;SDS011;5576;50.008;10.596;2022-11-20T03:57:19;24.25;;;20.63;;
11046;SDS011;5576;50.008;10.596;2022-11-20T03:59:45;24.93;;;21.00;;
11046;SDS011;5576;50.008;10.596;2022-11-20T04:02:10;24.25;;;20.33;;
11046;SDS011;5576;50.008;10.596;2022-11-20T04:04:36;23.53;;;20.30;;
11046;SDS011;5576;50.008;10.596;2022-11-20T04:07:02;22.70;;;19.10;;
11046;SDS011;5576;50.008;10.596;2022-11-20T04:09:28;24.55;;;21.38;;
11046;SDS011;5576;50.008;10.596;2022-11-20T04:11:54;23.87;;;20.30;;
11046;SDS011;5576;50.008;10.596;2022-11-20T04:14:19;24.65;;;21.92;;
11046;SDS011;5576;50.008;10.596;2022-11-20T04:16:45;26.33;;;22.13;;
11046;SDS011;5576;50.008;10.596;2022-11-20T04:19:12;28.67;;;24.48;;
11046;SDS011;5576;50.008;10.596;2022-11-20T04:21:40;30.27;;;26.38;;
11046;SDS011;5576;50.008;10.596;2022-11-20T04:24:07;26.95;;;22.30;;
11046;SDS011;5576;50.008;10.596;2022-11-20T04:26:33;27.58;;;22.88;;
11046;SDS011;5576;50.008;10.596;2022-11-20T04:28:59;27.38;;;24.33;;
11046;SDS011;5576;50.008;10.596;2022-11-20T04:31:27;26.15;;;22.38;;
11046;SDS011;5576;50.008;10.596;2022-11-20T04:33:55;29.52;;;25.50;;
11046;SDS011;5576;50.008;10.596;2022-11-20T04:36:22;26.10;;;22.63;;
11046;SDS011;5576;50.008;10.596;2022-11-20T04:38:50;28.35;;;24.20;;
11046;SDS011;5576;50.008;10.596;2022-11-20T04:41:18;30.17;;;25.83;;
11046;SDS011;5576;50.008;10.596;2022-11-20T04:43:48;33.70;;;28.65;;
11046;SDS011;5576;50.008;10.596;2022-11-20T04:46:15;28.42;;;23.85;;
11046;SDS011;5576;50.008;10.596;2022-11-20T04:48:42;27.77;;;23.77;;
11046;SDS011;5576;50.008;10.596;2022-11-20T04:51:08;25.83;;;21.75;;
11046;SDS011;5576;50.008;10.596;2022-11-20T04:53:33;24.70;;;20.63;;
11046;SDS011;5576;50.008;10.596;2022-11-20T04:56:00;24.70;;;20.30;;
11046;SDS011;5576;50.008;10.596;2022-11-20T04:58:26;26.98;;;23.13;;
11046;SDS011;5576;50.008;10.596;2022-11-20T05:00:52;25.70;;;22.00;;
11046;SDS011;5576;50.008;10.596;2022-11-20T05:03:18;24.30;;;21.00;;
11046;SDS011;5576;50.008;10.596;2022-11-20T05:05:44;30.30;;;26.48;;
11046;SDS011;5576;50.008;10.596;2022-11-20T05:08:09;25.67;;;21.53;;
11046;SDS011;5576;50.008;10.596;2022-11-20T05:10:35;27.60;;;23.23;;
11046;SDS011;5576;50.008;10.596;2022-11-20T05:13:01;24.67;;;20.97;;
11046;SDS011;5576;50.008;10.596;2022-11-20T05:15:26;24.40;;;20.75;;
11046;SDS011;5576;50.008;10.596;2022-11-20T05:17:52;39.10;;;34.00;;
11046;SDS011;5576;50.008;10.596;2022-11-20T05:20:18;26.77;;;22.70;;
11046;SDS011;5576;50.008;10.596;2022-11-20T05:22:44;23.90;;;19.98;;
11046;SDS011;5576;50.008;10.596;2022-11-20T05:25:10;25.67;;;21.52;;
11046;SDS011;5576;50.008;10.596;2022-11-20T05:27:36;23.35;;;19.70;;
11046;SDS011;5576;50.008;10.596;2022-11-20T05:30:03;23.67;;;20.43;;
11046;SDS011;5576;50.008;10.596;2022-11-20T05:32:30;23.08;;;19.42;;
11046;SDS011;5576;50.008;10.596;2022-11-20T05:34:55;24.50;;;20.40;;
11046;SDS011;5576;50.008;10.596;2022-11-20T05:37:21;26.13;;;22.25;;
11046;SDS011;5576;50.008;10.596;2022-11-20T05:39:47;24.70;;;21.27;;
11046;SDS011;5576;50.008;10.596;2022-11-20T05:42:12;25.15;;;20.98;;
11046;SDS011;5576;50.008;10.596;2022-11-20T05:44:59;25.80;;;21.95;;
11046;SDS011;5576;50.008;10.596;2022-11-20T05:47:27;25.13;;;21.42;;
11046;SDS011;5576;50.008;10.596;2022-11-20T05:49:53;25.90;;;22.20;;
11046;SDS011;5576;50.008;10.596;2022-11-20T05:52:19;26.10;;;22.20;;
11046;SDS011;5576;50.008;10.596;2022-11-20T05:54:45;24.20;;;20.17;;
11046;SDS011;5576;50.008;10.596;2022-11-20T05:57:11;23.92;;;20.67;;
11046;SDS011;5576;50.008;10.596;2022-11-20T05:59:36;25.17;;;20.70;;
11046;SDS011;5576;50.008;10.596;2022-11-20T06:02:02;24.65;;;20.60;;
11046;SDS011;5576;50.008;10.596;2022-11-20T06:04:28;25.27;;;21.10;;
11046;SDS011;5576;50.008;10.596;2022-11-20T06:06:53;26.33;;;22.23;;
11046;SDS011;5576;50.008;10.596;2022-11-20T06:09:19;27.45;;;21.95;;
11046;SDS011;5576;50.008;10.596;2022-11-20T06:11:45;26.97;;;22.73;;
11046;SDS011;5576;50.008;10.596;2022-11-20T06:14:11;29.05;;;24.77;;
11046;SDS011;5576;50.008;10.596;2022-11-20T06:16:36;32.33;;;27.03;;
11046;SDS011;5576;50.008;10.596;2022-11-20T06:19:02;32.15;;;25.77;;
11046;SDS011;5576;50.008;10.596;2022-11-20T06:21:28;29.97;;;25.37;;
11046;SDS011;5576;50.008;10.596;2022-11-20T06:23:54;29.85;;;25.17;;
11046;SDS011;5576;50.008;10.596;2022-11-20T06:26:20;30.20;;;25.00;;
11046;SDS011;5576;50.008;10.596;2022-11-20T06:28:48;31.17;;;26.63;;
11046;SDS011;5576;50.008;10.596;2022-11-20T06:31:15;31.67;;;27.20;;
11046;SDS011;5576;50.008;10.596;2022-11-20T06:33:42;30.60;;;25.08;;
11046;SDS011;5576;50.008;10.596;2022-11-20T06:36:09;33.90;;;28.77;;
11046;SDS011;5576;50.008;10.596;2022-11-20T06:38:36;30.17;;;24.77;;
11046;SDS011;5576;50.008;10.596;2022-11-20T06:41:02;32.88;;;27.63;;
11046;SDS011;5576;50.008;10.596;2022-11-20T06:43:29;33.15;;;27.63;;
11046;SDS011;5576;50.008;10.596;2022-11-20T06:45:55;29.95;;;25.48;;
11046;SDS011;5576;50.008;10.596;2022-11-20T06:48:22;31.27;;;26.48;;
11046;SDS011;5576;50.008;10.596;2022-11-20T06:50:48;31.23;;;25.75;;
11046;SDS011;5576;50.008;10.596;2022-11-20T06:53:14;32.17;;;27.38;;
11046;SDS011;5576;50.008;10.596;2022-11-20T06:55:42;30.70;;;25.75;;
11046;SDS011;5576;50.008;10.596;2022-11-20T06:58:09;26.58;;;22.52;;
11046;SDS011;5576;50.008;10.596;2022-11-20T07:00:35;29.08;;;24.00;;
11046;SDS011;5576;50.008;10.596;2022-11-20T07:03:04;30.17;;;25.65;;
11046;SDS011;5576;50.008;10.596;2022-11-20T07:05:31;29.30;;;24.85;;
11046;SDS011;5576;50.008;10.596;2022-11-20T07:07:57;31.35;;;25.92;;
11046;SDS011;5576;50.008;10.596;2022-11-20T07:10:23;31.67;;;26.17;;
11046;SDS011;5576;50.008;10.596;2022-11-20T07:12:49;31.53;;;25.23;;
11046;SDS011;5576;50.008;10.596;2022-11-20T07:15:16;32.60;;;26.08;;
11046;SDS011;5576;50.008;10.596;2022-11-20T07:17:42;32.28;;;26.67;;
11046;SDS011;5576;50.008;10.596;2022-11-20T07:20:08;31.15;;;25.70;;
11046;SDS011;5576;50.008;10.596;2022-11-20T07:22:34;34.67;;;27.90;;
11046;SDS011;5576;50.008;10.596;2022-11-20T07:25:00;31.47;;;25.83;;
11046;SDS011;5576;50.008;10.596;2022-11-20T07:27:26;30.02;;;24.95;;
11046;SDS011;5576;50.008;10.596;2022-11-20T07:29:52;33.78;;;27.55;;
11046;SDS011;5576;50.008;10.596;2022-11-20T07:32:18;32.80;;;26.97;;
11046;SDS011;5576;50.008;10.596;2022-11-20T07:34:44;34.20;;;27.83;;
11046;SDS011;5576;50.008;10.596;2022-11-20T07:37:10;32.67;;;26.80;;
11046;SDS011;5576;50.008;10.596;2022-11-20T07:39:35;30.02;;;25.23;;
11046;SDS011;5576;50.008;10.596;2022-11-20T07:42:01;30.03;;;24.97;;
11046;SDS011;5576;50.008;10.596;2022-11-20T07:44:27;32.65;;;25.95;;
11046;SDS011;5576;50.008;10.596;2022-11-20T07:46:53;31.17;;;26.90;;
11046;SDS011;5576;50.008;10.596;2022-11-20T07:49:18;31.93;;;25.93;;
11046;SDS011;5576;50.008;10.596;2022-11-20T07:51:44;30.05;;;24.95;;
11046;SDS011;5576;50.008;10.596;2022-11-20T07:54:10;29.13;;;24.53;;
11046;SDS011;5576;50.008;10.596;2022-11-20T07:56:35;29.25;;;24.33;;
11046;SDS011;5576;50.008;10.596;2022-11-20T07:59:01;26.90;;;22.50;;
11046;SDS011;5576;50.008;10.596;2022-11-20T08:01:28;27.85;;;23.58;;
11046;SDS011;5576;50.008;10.596;2022-11-20T08:03:54;24.65;;;21.30;;
11046;SDS011;5576;50.008;10.596;2022-11-20T08:06:19;24.83;;;21.27;;
11046;SDS011;5576;50.008;10.596;2022-11-20T08:08:45;25.20;;;21.15;;
11046;SDS011;5576;50.008;10.596;2022-11-20T08:11:11;26.97;;;22.43;;
11046;SDS011;5576;50.008;10.596;2022-11-20T08:13:56;24.90;;;22.02;;
11046;SDS011;5576;50.008;10.596;2022-11-20T08:16:39;27.55;;;22.55;;
11046;SDS011;5576;50.008;10.596;2022-11-20T08:19:05;25.38;;;21.52;;
11046;SDS011;5576;50.008;10.596;2022-11-20T08:21:32;26.20;;;21.60;;
11046;SDS011;5576;50.008;10.596;2022-11-20T08:24:00;34.70;;;27.30;;
11046;SDS011;5576;50.008;10.596;2022-11-20T08:26:26;44.30;;;34.20;;
11046;SDS011;5576;50.008;10.596;2022-11-20T08:28:55;33.60;;;28.10;;
11046;SDS011;5576;50.008;10.596;2022-11-20T08:31:22;37.97;;;30.07;;
11046;SDS011;5576;50.008;10.596;2022-11-20T08:33:50;37.58;;;29.52;;
11046;SDS011;5576;50.008;10.596;2022-11-20T08:36:16;35.10;;;28.77;;
11046;SDS011;5576;50.008;10.596;2022-11-20T08:38:46;42.85;;;31.73;;
11046;SDS011;5576;50.008;10.596;2022-11-20T08:41:13;35.37;;;30.20;;
11046;SDS011;5576;50.008;10.596;2022-11-20T08:44:00;35.40;;;29.85;;
11046;SDS011;5576;50.008;10.596;2022-11-20T08:46:30;36.97;;;30.80;;
11046;SDS011;5576;50.008;10.596;2022-11-20T08:48:59;32.85;;;27.77;;
11046;SDS011;5576;50.008;10.596;2022-11-20T08:51:24;38.38;;;29.67;;
11046;SDS011;5576;50.008;10.596;2022-11-20T08:53:50;36.27;;;29.10;;
11046;SDS011;5576;50.008;10.596;2022-11-20T08:56:16;36.65;;;29.58;;
11046;SDS011;5576;50.008;10.596;2022-11-20T08:58:42;38.08;;;31.25;;
11046;SDS011;5576;50.008;10.596;2022-11-20T09:01:08;34.80;;;28.47;;
11046;SDS011;5576;50.008;10.596;2022-11-20T09:03:34;32.53;;;26.95;;
11046;SDS011;5576;50.008;10.596;2022-11-20T09:06:01;32.78;;;26.55;;
11046;SDS011;5576;50.008;10.596;2022-11-20T09:08:29;32.43;;;27.10;;
11046;SDS011;5576;50.008;10.596;2022-11-20T09:10:56;30.60;;;25.93;;
11046;SDS011;5576;50.008;10.596;2022-11-20T09:13:23;45.63;;;37.55;;
11046;SDS011;5576;50.008;10.596;2022-11-20T09:15:54;39.45;;;31.10;;
11046;SDS011;5576;50.008;10.596;2022-11-20T09:18:21;36.25;;;31.17;;
11046;SDS011;5576;50.008;10.596;2022-11-20T09:20:47;56.22;;;47.33;;
11046;SDS011;5576;50.008;10.596;2022-11-20T09:23:14;50.97;;;45.25;;
11046;SDS011;5576;50.008;10.596;2022-11-20T09:25:40;40.40;;;34.40;;
11046;SDS011;5576;50.008;10.596;2022-11-20T09:28:06;34.85;;;29.23;;
11046;SDS011;5576;50.008;10.596;2022-11-20T09:30:32;31.47;;;27.13;;
11046;SDS011;5576;50.008;10.596;2022-11-20T09:32:58;31.25;;;25.38;;
11046;SDS011;5576;50.008;10.596;2022-11-20T09:35:23;29.10;;;23.63;;
11046;SDS011;5576;50.008;10.596;2022-11-20T09:37:49;29.35;;;23.50;;
11046;SDS011;5576;50.008;10.596;2022-11-20T09:40:23;27.40;;;22.73;;
11046;SDS011;5576;50.008;10.596;2022-11-20T09:45:54;52.10;;;44.88;;
11046;SDS011;5576;50.008;10.596;2022-11-20T09:56:44;35.47;;;31.35;;
11046;SDS011;5576;50.008;10.596;2022-11-20T09:59:23;32.07;;;25.90;;
11046;SDS011;5576;50.008;10.596;2022-11-20T10:01:55;30.95;;;26.48;;
11046;SDS011;5576;50.008;10.596;2022-11-20T10:04:22;35.58;;;29.08;;
11046;SDS011;5576;50.008;10.596;2022-11-20T10:09:34;34.45;;;27.75;;
11046;SDS011;5576;50.008;10.596;2022-11-20T10:12:06;27.95;;;23.17;;
11046;SDS011;5576;50.008;10.596;2022-11-20T10:14:42;30.55;;;25.58;;
11046;SDS011;5576;50.008;10.596;2022-11-20T10:30:48;30.85;;;25.45;;
11046;SDS011;5576;50.008;10.596;2022-11-20T10:33:22;29.92;;;25.27;;
11046;SDS011;5576;50.008;10.596;2022-11-20T10:35:54;28.85;;;23.70;;
11046;SDS011;5576;50.008;10.596;2022-11-20T10:38:31;28.33;;;24.50;;
11046;SDS011;5576;50.008;10.596;2022-11-20T10:41:02;29.30;;;24.15;;
11046;SDS011;5576;50.008;10.596;2022-11-20T10:43:52;34.97;;;31.13;;
11046;SDS011;5576;50.008;10.596;2022-11-20T10:46:25;32.20;;;27.10;;
11046;SDS011;5576;50.008;10.596;2022-11-20T10:48:59;29.70;;;24.67;;
11046;SDS011;5576;50.008;10.596;2022-11-20T10:56:46;30.23;;;24.45;;
11046;SDS011;5576;50.008;10.596;2022-11-20T11:02:16;28.02;;;23.48;;
11046;SDS011;5576;50.008;10.596;2022-11-20T11:04:44;28.75;;;23.05;;
11046;SDS011;5576;50.008;10.596;2022-11-20T11:09:46;30.13;;;24.13;;
11046;SDS011;5576;50.008;10.596;2022-11-20T11:12:15;29.67;;;24.98;;
11046;SDS011;5576;50.008;10.596;2022-11-20T11:14:46;30.48;;;24.80;;
11046;SDS011;5576;50.008;10.596;2022-11-20T11:17:29;33.90;;;26.95;;
11046;SDS011;5576;50.008;10.596;2022-11-20T11:22:45;32.47;;;25.05;;
11046;SDS011;5576;50.008;10.596;2022-11-20T11:28:02;38.97;;;32.13;;
11046;SDS011;5576;50.008;10.596;2022-11-20T11:30:30;84.50;;;65.90;;
11046;SDS011;5576;50.008;10.596;2022-11-20T11:33:09;67.63;;;53.00;;
11046;SDS011;5576;50.008;10.596;2022-11-20T11:35:43;81.97;;;63.88;;
11046;SDS011;5576;50.008;10.596;2022-11-20T11:38:12;40.50;;;31.97;;
11046;SDS011;5576;50.008;10.596;2022-11-20T11:40:43;55.03;;;43.70;;
11046;SDS011;5576;50.008;10.596;2022-11-20T11:43:18;46.60;;;37.75;;
11046;SDS011;5576;50.008;10.596;2022-11-20T11:46:24;43.83;;;37.22;;
11046;SDS011;5576;50.008;10.596;2022-11-20T11:51:26;34.88;;;30.50;;
11046;SDS011;5576;50.008;10.596;2022-11-20T11:53:59;45.33;;;34.43;;
11046;SDS011;5576;50.008;10.596;2022-11-20T11:56:30;29.40;;;23.20;;
11046;SDS011;5576;50.008;10.596;2022-11-20T11:58:59;29.75;;;23.38;;
11046;SDS011;5576;50.008;10.596;2022-11-20T12:01:46;28.83;;;23.17;;
11046;SDS011;5576;50.008;10.596;2022-11-20T12:07:15;32.83;;;27.03;;
11046;SDS011;5576;50.008;10.596;2022-11-20T12:09:54;27.27;;;21.85;;
11046;SDS011;5576;50.008;10.596;2022-11-20T12:12:26;29.60;;;23.27;;
11046;SDS011;5576;50.008;10.596;2022-11-20T12:14:55;28.08;;;22.35;;
11046;SDS011;5576;50.008;10.596;2022-11-20T12:17:22;28.92;;;22.10;;
11046;SDS011;5576;50.008;10.596;2022-11-20T12:19:48;26.88;;;21.52;;
11046;SDS011;5576;50.008;10.596;2022-11-20T12:24:47;27.23;;;21.13;;
11046;SDS011;5576;50.008;10.596;2022-11-20T12:30:22;30.15;;;23.63;;
11046;SDS011;5576;50.008;10.596;2022-11-20T12:46:30;23.45;;;18.42;;
11046;SDS011;5576;50.008;10.596;2022-11-20T12:54:55;21.10;;;17.13;;
11046;SDS011;5576;50.008;10.596;2022-11-20T13:00:10;24.27;;;19.27;;
11046;SDS011;5576;50.008;10.596;2022-11-20T13:08:24;23.35;;;17.90;;
11046;SDS011;5576;50.008;10.596;2022-11-20T13:16:25;21.00;;;17.02;;
11046;SDS011;5576;50.008;10.596;2022-11-20T13:19:02;20.40;;;16.63;;
11046;SDS011;5576;50.008;10.596;2022-11-20T13:21:38;20.35;;;16.67;;
11046;SDS011;5576;50.008;10.596;2022-11-20T13:24:06;20.40;;;16.80;;
11046;SDS011;5576;50.008;10.596;2022-11-20T13:26:45;19.92;;;16.35;;
11046;SDS011;5576;50.008;10.596;2022-11-20T13:29:12;18.98;;;16.05;;
11046;SDS011;5576;50.008;10.596;2022-11-20T13:31:44;18.90;;;15.82;;
11046;SDS011;5576;50.008;10.596;2022-11-20T13:34:13;18.88;;;15.57;;
11046;SDS011;5576;50.008;10.596;2022-11-20T13:36:57;19.40;;;16.00;;
11046;SDS011;5576;50.008;10.596;2022-11-20T13:39:26;18.95;;;16.13;;
11046;SDS011;5576;50.008;10.596;2022-11-20T13:41:54;20.05;;;16.55;;
11046;SDS011;5576;50.008;10.596;2022-11-20T13:46:54;20.65;;;16.60;;
11046;SDS011;5576;50.008;10.596;2022-11-20T13:49:23;20.58;;;17.27;;
11046;SDS011;5576;50.008;10.596;2022-11-20T14:00:18;20.70;;;17.30;;
11046;SDS011;5576;50.008;10.596;2022-11-20T14:02:51;19.80;;;16.60;;
11046;SDS011;5576;50.008;10.596;2022-11-20T14:05:36;20.13;;;16.20;;
11046;SDS011;5576;50.008;10.596;2022-11-20T14:08:04;21.25;;;17.23;;
11046;SDS011;5576;50.008;10.596;2022-11-20T14:10:38;21.25;;;17.45;;
11046;SDS011;5576;50.008;10.596;2022-11-20T14:13:20;21.20;;;17.13;;
11046;SDS011;5576;50.008;10.596;2022-11-20T14:15:46;22.40;;;18.10;;
11046;SDS011;5576;50.008;10.596;2022-11-20T14:18:13;23.98;;;18.83;;
11046;SDS011;5576;50.008;10.596;2022-11-20T14:20:43;21.30;;;17.15;;
11046;SDS011;5576;50.008;10.596;2022-11-20T14:23:10;21.75;;;17.88;;
11046;SDS011;5576;50.008;10.596;2022-11-20T14:25:36;23.10;;;17.93;;
11046;SDS011;5576;50.008;10.596;2022-11-20T14:28:10;22.20;;;18.00;;
11046;SDS011;5576;50.008;10.596;2022-11-20T14:30:44;22.58;;;17.55;;
11046;SDS011;5576;50.008;10.596;2022-11-20T14:33:12;22.57;;;17.30;;
11046;SDS011;5576;50.008;10.596;2022-11-20T14:35:42;22.83;;;17.50;;
11046;SDS011;5576;50.008;10.596;2022-11-20T14:38:11;22.52;;;17.95;;
11046;SDS011;5576;50.008;10.596;2022-11-20T14:40:39;23.75;;;18.80;;
11046;SDS011;5576;50.008;10.596;2022-11-20T14:43:16;26.50;;;20.40;;
11046;SDS011;5576;50.008;10.596;2022-11-20T14:45:44;23.70;;;18.90;;
11046;SDS011;5576;50.008;10.596;2022-11-20T14:48:13;22.08;;;17.25;;
11046;SDS011;5576;50.008;10.596;2022-11-20T14:50:40;21.05;;;16.80;;
11046;SDS011;5576;50.008;10.596;2022-11-20T14:53:06;38.97;;;28.63;;
11046;SDS011;5576;50.008;10.596;2022-11-20T14:55:33;22.23;;;18.67;;
11046;SDS011;5576;50.008;10.596;2022-11-20T14:58:01;23.73;;;19.17;;
11046;SDS011;5576;50.008;10.596;2022-11-20T15:00:30;23.10;;;18.40;;
11046;SDS011;5576;50.008;10.596;2022-11-20T15:02:57;21.80;;;16.70;;
11046;SDS011;5576;50.008;10.596;2022-11-20T15:05:24;20.80;;;17.10;;
11046;SDS011;5576;50.008;10.596;2022-11-20T15:08:08;21.67;;;17.38;;
11046;SDS011;5576;50.008;10.596;2022-11-20T15:10:35;22.58;;;17.75;;
11046;SDS011;5576;50.008;10.596;2022-11-20T15:13:04;24.45;;;18.35;;
11046;SDS011;5576;50.008;10.596;2022-11-20T15:15:41;20.63;;;17.00;;
11046;SDS011;5576;50.008;10.596;2022-11-20T15:18:11;23.08;;;18.30;;
11046;SDS011;5576;50.008;10.596;2022-11-20T15:20:39;23.92;;;19.02;;
11046;SDS011;5576;50.008;10.596;2022-11-20T15:23:09;27.00;;;20.83;;
11046;SDS011;5576;50.008;10.596;2022-11-20T15:25:37;24.65;;;19.15;;
11046;SDS011;5576;50.008;10.596;2022-11-20T15:28:04;25.13;;;19.10;;
11046;SDS011;5576;50.008;10.596;2022-11-20T15:30:37;21.48;;;17.40;;
11046;SDS011;5576;50.008;10.596;2022-11-20T15:33:03;22.57;;;18.67;;
11046;SDS011;5576;50.008;10.596;2022-11-20T15:35:29;25.17;;;21.02;;
11046;SDS011;5576;50.008;10.596;2022-11-20T15:37:55;28.33;;;23.70;;
11046;SDS011;5576;50.008;10.596;2022-11-20T15:40:21;33.22;;;27.35;;
11046;SDS011;5576;50.008;10.596;2022-11-20T15:42:46;25.63;;;20.17;;
11046;SDS011;5576;50.008;10.596;2022-11-20T15:45:28;26.63;;;21.83;;
11046;SDS011;5576;50.008;10.596;2022-11-20T15:47:58;26.02;;;20.45;;
11046;SDS011;5576;50.008;10.596;2022-11-20T15:50:26;25.27;;;20.40;;
11046;SDS011;5576;50.008;10.596;2022-11-20T15:52:58;26.17;;;22.02;;
11046;SDS011;5576;50.008;10.596;2022-11-20T15:55:24;24.17;;;20.33;;
11046;SDS011;5576;50.008;10.596;2022-11-20T15:57:50;30.05;;;24.90;;
11046;SDS011;5576;50.008;10.596;2022-11-20T16:00:15;26.13;;;20.83;;
11046;SDS011;5576;50.008;10.596;2022-11-20T16:02:41;25.07;;;20.43;;
11046;SDS011;5576;50.008;10.596;2022-11-20T16:05:10;23.15;;;18.77;;
11046;SDS011;5576;50.008;10.596;2022-11-20T16:07:38;22.42;;;17.88;;
11046;SDS011;5576;50.008;10.596;2022-11-20T16:10:03;25.15;;;20.73;;
11046;SDS011;5576;50.008;10.596;2022-11-20T16:12:30;25.55;;;21.38;;
11046;SDS011;5576;50.008;10.596;2022-11-20T16:15:15;26.90;;;22.00;;
11046;SDS011;5576;50.008;10.596;2022-11-20T16:18:01;27.38;;;22.50;;